createdAt,value
2023-01-22T00:02:05.940Z,13.50
2023-01-22T00:04:32.742Z,11.85
2023-01-22T00:06:59.208Z,12.27
2023-01-22T00:09:25.712Z,11.32
2023-01-22T00:11:52.423Z,12.68
2023-01-22T00:14:19.012Z,11.80
2023-01-22T00:16:45.590Z,11.55
2023-01-22T00:19:12.102Z,11.95
2023-01-22T00:21:38.573Z,11.88
2023-01-22T00:24:05.262Z,11.40
2023-01-22T00:26:31.765Z,10.95
2023-01-22T00:28:58.518Z,12.15
2023-01-22T00:31:25.339Z,10.88
2023-01-22T00:33:51.879Z,11.90
2023-01-22T00:36:20.408Z,12.13
2023-01-22T00:38:49.022Z,11.48
2023-01-22T00:41:17.096Z,12.95
2023-01-22T00:43:43.631Z,12.48
2023-01-22T00:46:13.700Z,11.98
2023-01-22T00:48:40.469Z,12.23
2023-01-22T00:51:10.476Z,12.57
2023-01-22T00:53:37.547Z,11.88
2023-01-22T00:56:04.426Z,12.52
2023-01-22T00:58:30.914Z,12.00
2023-01-22T01:00:57.813Z,11.63
2023-01-22T01:03:27.146Z,12.20
2023-01-22T01:05:53.605Z,12.45
2023-01-22T01:08:20.320Z,12.07
2023-01-22T01:10:46.991Z,12.00
2023-01-22T01:13:13.484Z,11.63
2023-01-22T01:15:40.208Z,12.05
2023-01-22T01:18:09.007Z,12.40
2023-01-22T01:20:35.496Z,11.68
2023-01-22T01:23:01.939Z,11.60
2023-01-22T01:25:28.399Z,12.15
2023-01-22T01:27:54.892Z,11.15
2023-01-22T01:30:21.661Z,12.70
2023-01-22T01:32:49.329Z,12.43
2023-01-22T01:35:15.963Z,11.82
2023-01-22T01:37:42.454Z,12.45
2023-01-22T01:40:09.434Z,12.20
2023-01-22T01:42:39.745Z,11.65
2023-01-22T01:45:22.521Z,12.05
2023-01-22T01:48:14.717Z,11.73
2023-01-22T01:50:45.852Z,11.73
2023-01-22T01:53:12.404Z,11.15
2023-01-22T01:55:39.755Z,12.82
2023-01-22T01:58:14.543Z,11.90
2023-01-22T02:00:44.139Z,11.75
2023-01-22T02:03:11.440Z,11.85
2023-01-22T02:05:38.734Z,11.57
2023-01-22T02:08:08.856Z,12.63
2023-01-22T02:10:36.270Z,11.43
2023-01-22T02:13:08.535Z,10.77
2023-01-22T02:15:37.062Z,12.32
2023-01-22T02:18:03.900Z,11.10
2023-01-22T02:20:38.588Z,11.13
2023-01-22T02:23:07.985Z,11.98
2023-01-22T02:25:34.549Z,11.00
2023-01-22T02:28:02.245Z,11.73
2023-01-22T02:30:28.916Z,11.60
2023-01-22T02:32:56.353Z,11.57
2023-01-22T02:35:24.093Z,10.98
2023-01-22T02:37:50.688Z,10.93
2023-01-22T02:40:17.634Z,11.40
2023-01-22T02:42:44.550Z,11.48
2023-01-22T02:45:11.943Z,11.70
2023-01-22T02:47:38.473Z,11.05
2023-01-22T02:50:06.435Z,11.45
2023-01-22T02:52:33.352Z,12.07
2023-01-22T02:54:59.861Z,11.32
2023-01-22T02:57:26.376Z,10.75
2023-01-22T02:59:52.873Z,11.23
2023-01-22T03:02:19.416Z,11.73
2023-01-22T03:04:50.155Z,10.93
2023-01-22T03:07:17.759Z,11.18
2023-01-22T03:09:46.050Z,10.88
2023-01-22T03:12:12.777Z,10.95
2023-01-22T03:14:58.494Z,11.45
2023-01-22T03:17:43.464Z,11.25
2023-01-22T03:20:29.365Z,11.48
2023-01-22T03:22:55.853Z,10.85
2023-01-22T03:25:22.373Z,11.30
2023-01-22T03:28:08.617Z,11.13
2023-01-22T03:30:36.667Z,10.73
2023-01-22T03:33:03.177Z,10.98
2023-01-22T03:35:30.890Z,10.50
2023-01-22T03:38:13.204Z,11.30
2023-01-22T03:40:39.986Z,11.32
2023-01-22T03:43:06.767Z,10.50
2023-01-22T03:45:34.673Z,11.70
2023-01-22T03:48:02.335Z,10.57
2023-01-22T03:50:35.388Z,10.68
2023-01-22T03:53:03.992Z,10.18
2023-01-22T03:55:31.839Z,10.82
2023-01-22T03:57:58.316Z,10.48
2023-01-22T04:00:24.885Z,10.25
2023-01-22T04:02:53.606Z,11.07
2023-01-22T04:05:24.196Z,11.07
2023-01-22T04:07:51.157Z,10.48
2023-01-22T04:10:21.664Z,10.32
2023-01-22T04:12:48.861Z,10.95
2023-01-22T04:15:18.464Z,10.95
2023-01-22T04:17:46.121Z,10.63
2023-01-22T04:20:30.037Z,11.13
2023-01-22T04:23:21.020Z,10.32
2023-01-22T04:25:49.418Z,10.05
2023-01-22T04:28:16.666Z,11.02
2023-01-22T04:30:47.156Z,10.73
2023-01-22T04:33:32.238Z,11.27
2023-01-22T04:36:05.022Z,10.35
2023-01-22T04:38:31.557Z,10.77
2023-01-22T04:40:58.060Z,9.98
2023-01-22T04:43:24.572Z,11.20
2023-01-22T04:45:51.457Z,10.15
2023-01-22T04:48:20.342Z,10.63
2023-01-22T04:50:46.827Z,10.70
2023-01-22T04:53:13.457Z,10.45
2023-01-22T04:55:41.865Z,8.98
2023-01-22T04:58:12.284Z,10.27
2023-01-22T05:00:40.143Z,9.18
2023-01-22T05:03:08.272Z,10.00
2023-01-22T05:05:36.294Z,9.88
2023-01-22T05:08:02.895Z,9.05
2023-01-22T05:10:31.294Z,9.00
2023-01-22T05:12:57.882Z,10.18
2023-01-22T05:15:25.578Z,10.02
2023-01-22T05:17:55.768Z,9.35
2023-01-22T05:20:25.518Z,8.73
2023-01-22T05:22:52.653Z,8.70
2023-01-22T05:25:23.668Z,9.55
2023-01-22T05:27:50.220Z,8.95
2023-01-22T05:30:29.085Z,8.88
2023-01-22T05:33:00.691Z,9.82
2023-01-22T05:35:28.578Z,9.70
2023-01-22T05:37:56.604Z,8.82
2023-01-22T05:40:23.567Z,9.27
2023-01-22T05:42:50.076Z,9.75
2023-01-22T05:45:16.724Z,8.80
2023-01-22T05:47:58.234Z,9.25
2023-01-22T05:50:36.658Z,9.25
2023-01-22T05:53:09.038Z,8.57
2023-01-22T05:55:35.733Z,9.45
2023-01-22T05:58:06.196Z,8.88
2023-01-22T06:00:33.291Z,10.10
2023-01-22T06:03:02.583Z,9.38
2023-01-22T06:05:36.334Z,9.73
2023-01-22T06:08:06.585Z,8.70
2023-01-22T06:10:40.965Z,8.10
2023-01-22T06:13:07.435Z,8.48
2023-01-22T06:15:33.977Z,8.68
2023-01-22T06:18:13.762Z,8.73
2023-01-22T06:20:40.235Z,9.10
2023-01-22T06:23:08.119Z,8.60
2023-01-22T06:25:34.733Z,8.30
2023-01-22T06:28:10.337Z,8.25
2023-01-22T06:30:39.121Z,8.93
2023-01-22T06:33:05.739Z,8.52
2023-01-22T06:35:32.540Z,8.63
2023-01-22T06:37:59.051Z,7.55
2023-01-22T06:40:25.656Z,7.90
2023-01-22T06:42:52.430Z,8.48
2023-01-22T06:45:18.945Z,7.93
2023-01-22T06:47:50.899Z,9.00
2023-01-22T06:50:17.799Z,17.15
2023-01-22T06:52:44.503Z,19.75
2023-01-22T06:55:11.071Z,9.13
2023-01-22T06:57:38.682Z,9.00
2023-01-22T07:00:06.209Z,8.05
2023-01-22T07:02:32.685Z,8.75
2023-01-22T07:04:59.199Z,8.70
2023-01-22T07:07:25.737Z,7.97
2023-01-22T07:09:52.158Z,8.25
2023-01-22T07:12:18.695Z,8.60
2023-01-22T07:14:45.160Z,7.60
2023-01-22T07:17:11.686Z,7.93
2023-01-22T07:19:38.153Z,7.97
2023-01-22T07:22:04.640Z,8.98
2023-01-22T07:24:31.126Z,8.50
2023-01-22T07:26:57.569Z,8.43
2023-01-22T07:29:23.998Z,8.32
2023-01-22T07:31:50.496Z,7.65
2023-01-22T07:34:17.020Z,8.50
2023-01-22T07:36:43.517Z,8.85
2023-01-22T07:39:10.026Z,8.48
2023-01-22T07:41:36.480Z,8.55
2023-01-22T07:44:11.269Z,8.57
2023-01-22T07:46:41.303Z,8.23
2023-01-22T07:49:07.897Z,8.45
2023-01-22T07:51:34.785Z,7.85
2023-01-22T07:54:01.280Z,7.80
2023-01-22T07:56:27.736Z,8.25
2023-01-22T07:58:54.236Z,8.50
2023-01-22T08:01:20.736Z,8.55
2023-01-22T08:03:47.261Z,8.10
2023-01-22T08:06:17.898Z,7.38
2023-01-22T08:08:44.314Z,7.70
2023-01-22T08:11:10.916Z,7.95
2023-01-22T08:13:37.375Z,8.10
2023-01-22T08:16:04.077Z,8.05
2023-01-22T08:18:30.666Z,7.95
2023-01-22T08:21:01.042Z,8.50
2023-01-22T08:23:28.512Z,15.20
2023-01-22T08:25:59.700Z,8.82
2023-01-22T08:28:26.964Z,7.68
2023-01-22T08:30:59.370Z,8.05
2023-01-22T08:33:26.995Z,8.00
2023-01-22T08:35:53.531Z,8.13
2023-01-22T08:38:20.210Z,7.85
2023-01-22T08:40:51.425Z,8.07
2023-01-22T08:43:18.312Z,7.28
2023-01-22T08:45:48.267Z,6.68
2023-01-22T08:48:14.754Z,8.18
2023-01-22T08:50:41.223Z,6.30
2023-01-22T08:53:07.749Z,6.70
2023-01-22T08:55:34.271Z,6.40
2023-01-22T08:58:00.749Z,6.68
2023-01-22T09:00:27.516Z,7.07
2023-01-22T09:02:58.998Z,6.97
2023-01-22T09:05:26.725Z,5.65
2023-01-22T09:07:53.233Z,6.45
2023-01-22T09:10:21.757Z,6.43
2023-01-22T09:12:48.632Z,6.68
2023-01-22T09:15:15.384Z,6.65
2023-01-22T09:17:42.504Z,7.32
2023-01-22T09:20:09.688Z,6.93
2023-01-22T09:22:36.320Z,7.35
2023-01-22T09:25:02.858Z,6.97
2023-01-22T09:27:29.325Z,7.10
2023-01-22T09:29:55.793Z,6.35
2023-01-22T09:32:22.434Z,5.88
2023-01-22T09:34:48.977Z,6.25
2023-01-22T09:37:15.782Z,5.90
2023-01-22T09:39:42.282Z,7.85
2023-01-22T09:42:17.209Z,6.85
2023-01-22T09:44:47.552Z,5.68
2023-01-22T09:47:25.105Z,5.05
2023-01-22T09:50:04.584Z,4.97
2023-01-22T09:52:33.561Z,5.72
2023-01-22T09:55:00.323Z,5.72
2023-01-22T09:57:32.074Z,5.32
2023-01-22T09:59:59.309Z,5.50
2023-01-22T10:02:43.473Z,5.35
2023-01-22T10:05:36.460Z,6.20
2023-01-22T10:08:13.065Z,5.85
2023-01-22T10:10:40.018Z,5.95
2023-01-22T10:13:11.563Z,5.10
2023-01-22T10:15:38.231Z,5.40
2023-01-22T10:18:22.642Z,4.93
2023-01-22T10:20:49.953Z,4.90
2023-01-22T10:23:23.322Z,5.10
2023-01-22T10:25:53.139Z,5.77
2023-01-22T10:28:25.140Z,4.50
2023-01-22T10:30:57.671Z,4.25
2023-01-22T10:33:26.556Z,4.55
2023-01-22T10:35:56.647Z,4.00
2023-01-22T10:38:31.318Z,5.00
2023-01-22T10:41:02.353Z,4.70
2023-01-22T10:43:37.276Z,16.00
2023-01-22T10:46:18.506Z,4.65
2023-01-22T10:48:44.980Z,4.72
2023-01-22T10:51:17.168Z,4.25
2023-01-22T10:53:49.941Z,4.13
2023-01-22T10:56:27.573Z,4.43
2023-01-22T10:58:55.306Z,4.82
2023-01-22T11:01:31.336Z,4.60
2023-01-22T11:03:57.883Z,4.38
2023-01-22T11:06:37.737Z,4.60
2023-01-22T11:09:27.508Z,4.93
2023-01-22T11:12:12.816Z,4.75
2023-01-22T11:14:39.736Z,4.63
2023-01-22T11:17:22.185Z,4.60
2023-01-22T11:19:58.702Z,4.90
2023-01-22T11:22:33.308Z,5.88
2023-01-22T11:24:59.906Z,4.70
2023-01-22T11:27:37.419Z,4.95
2023-01-22T11:30:19.138Z,5.38
2023-01-22T11:32:59.165Z,5.40
2023-01-22T11:35:44.214Z,5.75
2023-01-22T11:38:10.647Z,5.75
2023-01-22T11:41:08.373Z,5.50
2023-01-22T11:43:47.090Z,6.15
2023-01-22T11:46:31.745Z,4.45
2023-01-22T11:49:03.197Z,6.10
2023-01-22T11:51:32.945Z,4.70
2023-01-22T11:54:25.192Z,5.30
2023-01-22T11:57:19.687Z,5.68
2023-01-22T12:00:24.855Z,5.05
2023-01-22T12:05:42.488Z,5.25
2023-01-22T12:08:26.928Z,15.30
2023-01-22T12:11:16.153Z,5.63
2023-01-22T12:14:23.756Z,5.25
2023-01-22T12:17:00.648Z,5.40
2023-01-22T12:20:23.277Z,5.40
2023-01-22T12:23:07.899Z,5.22
2023-01-22T12:25:41.757Z,5.32
2023-01-22T12:28:22.568Z,5.35
2023-01-22T12:31:11.589Z,4.57
2023-01-22T12:33:41.809Z,4.75
2023-01-22T12:36:13.287Z,4.68
2023-01-22T12:38:48.809Z,4.82
2023-01-22T12:41:29.856Z,4.78
2023-01-22T12:43:59.380Z,4.40
2023-01-22T12:47:02.005Z,4.65
2023-01-22T12:49:28.645Z,4.60
2023-01-22T12:51:56.665Z,4.75
2023-01-22T12:54:25.955Z,4.47
2023-01-22T12:56:57.592Z,5.07
2023-01-22T12:59:33.254Z,5.57
2023-01-22T13:02:02.042Z,6.28
2023-01-22T13:04:30.379Z,6.47
2023-01-22T13:07:05.874Z,5.10
2023-01-22T13:09:36.826Z,4.93
2023-01-22T13:12:24.277Z,4.80
2023-01-22T13:14:50.891Z,5.78
2023-01-22T13:17:20.698Z,14.15
2023-01-22T13:19:50.432Z,4.70
2023-01-22T13:22:21.556Z,5.07
2023-01-22T13:24:59.170Z,4.80
2023-01-22T13:27:33.405Z,5.40
2023-01-22T13:32:33.489Z,5.00
2023-01-22T13:35:04.896Z,5.00
2023-01-22T13:37:31.730Z,5.45
2023-01-22T13:39:58.515Z,5.20
2023-01-22T13:42:27.294Z,5.53
2023-01-22T13:44:55.909Z,5.32
2023-01-22T13:47:29.552Z,5.38
2023-01-22T13:49:56.144Z,5.00
2023-01-22T13:52:23.122Z,4.72
2023-01-22T13:55:00.680Z,5.15
2023-01-22T13:57:27.234Z,5.00
2023-01-22T13:59:59.744Z,5.88
2023-01-22T14:02:31.070Z,6.80
2023-01-22T14:04:58.084Z,5.93
2023-01-22T14:07:31.646Z,6.50
2023-01-22T14:10:11.374Z,6.97
2023-01-22T14:12:37.925Z,7.10
2023-01-22T14:15:20.576Z,6.70
2023-01-22T14:17:49.714Z,5.47
2023-01-22T14:20:17.732Z,7.10
2023-01-22T14:22:44.539Z,5.90
2023-01-22T14:25:11.318Z,6.82
2023-01-22T14:27:47.105Z,6.70
2023-01-22T14:30:16.832Z,6.78
2023-01-22T14:32:44.479Z,7.15
2023-01-22T14:35:22.658Z,7.13
2023-01-22T14:37:49.731Z,7.07
2023-01-22T14:40:17.525Z,6.80
2023-01-22T14:42:45.099Z,7.00
2023-01-22T14:45:11.959Z,8.10
2023-01-22T14:47:38.715Z,14.43
2023-01-22T14:50:06.508Z,8.07
2023-01-22T14:52:33.620Z,7.35
2023-01-22T14:55:00.218Z,7.28
2023-01-22T14:57:26.886Z,7.53
2023-01-22T14:59:53.413Z,9.30
2023-01-22T15:02:20.402Z,7.80
2023-01-22T15:04:47.212Z,7.68
2023-01-22T15:07:13.762Z,7.38
2023-01-22T15:09:40.415Z,7.85
2023-01-22T15:12:07.490Z,7.25
2023-01-22T15:14:34.329Z,7.47
2023-01-22T15:17:00.982Z,7.85
2023-01-22T15:19:28.504Z,7.60
2023-01-22T15:21:55.996Z,7.13
2023-01-22T15:24:23.586Z,8.02
2023-01-22T15:26:50.827Z,6.82
2023-01-22T15:29:17.323Z,8.02
2023-01-22T15:31:43.948Z,7.03
2023-01-22T15:34:10.624Z,7.18
2023-01-22T15:36:39.553Z,7.57
2023-01-22T15:39:06.451Z,7.15
2023-01-22T15:41:35.403Z,7.13
2023-01-22T15:44:05.580Z,7.80
2023-01-22T15:46:37.699Z,7.88
2023-01-22T15:49:05.282Z,7.93
2023-01-22T15:51:32.128Z,7.35
2023-01-22T15:54:01.620Z,7.85
2023-01-22T15:56:31.579Z,7.05
2023-01-22T15:58:58.922Z,6.55
2023-01-22T16:01:26.707Z,6.60
2023-01-22T16:03:54.048Z,7.05
2023-01-22T16:06:23.234Z,7.00
2023-01-22T16:08:51.425Z,7.55
2023-01-22T16:11:19.092Z,7.65
2023-01-22T16:13:45.655Z,7.47
2023-01-22T16:16:21.449Z,7.07
2023-01-22T16:18:49.571Z,7.80
2023-01-22T16:21:17.225Z,8.43
2023-01-22T16:23:45.990Z,15.10
2023-01-22T16:26:16.313Z,7.82
2023-01-22T16:28:43.571Z,6.95
2023-01-22T16:31:16.181Z,7.40
2023-01-22T16:33:45.982Z,7.35
2023-01-22T16:36:18.359Z,6.35
2023-01-22T16:38:45.464Z,6.95
2023-01-22T16:41:24.256Z,7.07
2023-01-22T16:43:53.996Z,7.40
2023-01-22T16:46:23.344Z,7.30
2023-01-22T16:48:55.586Z,6.40
2023-01-22T16:51:27.002Z,8.00
2023-01-22T16:53:54.649Z,6.82
2023-01-22T16:56:21.377Z,7.65
2023-01-22T16:58:47.895Z,7.97
2023-01-22T17:01:15.066Z,7.75
2023-01-22T17:03:42.178Z,7.40
2023-01-22T17:06:26.491Z,7.20
2023-01-22T17:08:53.975Z,7.70
2023-01-22T17:11:20.924Z,8.38
2023-01-22T17:13:47.683Z,7.47
2023-01-22T17:16:15.174Z,8.93
2023-01-22T17:18:42.358Z,7.85
2023-01-22T17:21:11.652Z,8.18
2023-01-22T17:23:38.417Z,8.00
2023-01-22T17:26:09.587Z,7.90
2023-01-22T17:28:37.630Z,7.68
2023-01-22T17:31:09.171Z,8.02
2023-01-22T17:33:36.439Z,7.82
2023-01-22T17:36:04.595Z,9.85
2023-01-22T17:38:33.395Z,9.23
2023-01-22T17:41:15.972Z,8.02
2023-01-22T17:43:45.259Z,8.40
2023-01-22T17:46:15.137Z,8.52
2023-01-22T17:48:42.404Z,8.80
2023-01-22T17:51:11.975Z,8.57
2023-01-22T17:53:41.007Z,7.95
2023-01-22T17:56:16.566Z,8.63
2023-01-22T17:58:46.293Z,9.15
2023-01-22T18:01:15.121Z,12.95
2023-01-22T18:03:41.729Z,8.80
2023-01-22T18:06:08.924Z,9.35
2023-01-22T18:08:41.130Z,9.93
2023-01-22T18:11:18.026Z,9.35
2023-01-22T18:13:44.690Z,9.38
2023-01-22T18:16:14.455Z,9.20
2023-01-22T18:18:42.200Z,9.65
2023-01-22T18:21:16.694Z,10.07
2023-01-22T18:23:44.070Z,9.52
2023-01-22T18:26:11.439Z,9.85
2023-01-22T18:28:43.590Z,9.38
2023-01-22T18:31:16.584Z,10.05
2023-01-22T18:33:45.925Z,9.63
2023-01-22T18:36:14.605Z,10.35
2023-01-22T18:38:41.636Z,10.73
2023-01-22T18:41:23.670Z,10.73
2023-01-22T18:43:57.965Z,10.13
2023-01-22T18:46:28.278Z,10.57
2023-01-22T18:48:57.313Z,10.00
2023-01-22T18:51:26.062Z,10.02
2023-01-22T18:53:52.959Z,9.90
2023-01-22T18:56:20.177Z,9.77
2023-01-22T18:58:48.058Z,9.93
2023-01-22T19:01:19.036Z,9.93
2023-01-22T19:03:48.316Z,10.10
2023-01-22T19:06:17.653Z,11.30
2023-01-22T19:08:52.840Z,10.00
2023-01-22T19:11:20.824Z,9.82
2023-01-22T19:13:48.746Z,11.20
2023-01-22T19:16:17.054Z,10.75
2023-01-22T19:18:46.691Z,10.82
2023-01-22T19:21:19.274Z,11.38
2023-01-22T19:23:47.983Z,10.68
2023-01-22T19:26:26.852Z,10.48
2023-01-22T19:28:57.428Z,11.00
2023-01-22T19:31:29.560Z,10.27
2023-01-22T19:33:57.008Z,11.18
2023-01-22T19:36:28.079Z,10.45
2023-01-22T19:38:59.760Z,10.10
2023-01-22T19:41:26.722Z,10.43
2023-01-22T19:43:57.837Z,10.20
2023-01-22T19:46:25.996Z,11.18
2023-01-22T19:48:53.799Z,12.60
2023-01-22T19:51:22.168Z,14.20
2023-01-22T19:53:49.137Z,12.60
2023-01-22T19:56:20.827Z,12.63
2023-01-22T19:58:48.746Z,10.68
2023-01-22T20:01:16.563Z,10.65
2023-01-22T20:03:43.395Z,9.82
2023-01-22T20:06:12.064Z,10.23
2023-01-22T20:08:41.389Z,9.73
2023-01-22T20:11:09.412Z,9.63
2023-01-22T20:13:37.105Z,9.40
2023-01-22T20:16:05.100Z,8.95
2023-01-22T20:18:31.880Z,8.80
2023-01-22T20:21:00.570Z,7.95
2023-01-22T20:23:28.557Z,9.20
2023-01-22T20:25:56.356Z,9.43
2023-01-22T20:28:23.656Z,8.90
2023-01-22T20:31:03.966Z,8.70
2023-01-22T20:33:32.017Z,7.90
2023-01-22T20:36:03.836Z,8.30
2023-01-22T20:38:30.913Z,8.27
2023-01-22T20:41:02.390Z,8.82
2023-01-22T20:43:29.024Z,7.75
2023-01-22T20:46:00.790Z,8.68
2023-01-22T20:48:31.299Z,10.75
2023-01-22T20:50:59.325Z,9.95
2023-01-22T20:53:27.431Z,8.75
2023-01-22T20:56:06.909Z,8.90
2023-01-22T20:58:34.731Z,8.30
2023-01-22T21:01:10.603Z,8.70
2023-01-22T21:03:37.489Z,9.45
2023-01-22T21:06:07.783Z,8.80
2023-01-22T21:08:35.227Z,8.25
2023-01-22T21:11:06.430Z,9.05
2023-01-22T21:13:32.996Z,7.85
2023-01-22T21:16:15.987Z,7.80
2023-01-22T21:18:44.510Z,8.38
2023-01-22T21:21:13.838Z,8.57
2023-01-22T21:23:41.149Z,7.47
2023-01-22T21:26:11.770Z,10.43
2023-01-22T21:28:39.741Z,8.73
2023-01-22T21:31:12.575Z,7.38
2023-01-22T21:33:40.005Z,7.78
2023-01-22T21:36:08.450Z,8.02
2023-01-22T21:38:36.041Z,8.15
2023-01-22T21:41:12.384Z,8.07
2023-01-22T21:43:59.096Z,7.75
2023-01-22T21:46:26.152Z,7.15
2023-01-22T21:49:01.252Z,6.90
2023-01-22T21:51:31.193Z,8.27
2023-01-22T21:53:59.009Z,7.65
2023-01-22T21:56:26.534Z,7.93
2023-01-22T21:58:53.106Z,9.10
2023-01-22T22:01:21.880Z,9.45
2023-01-22T22:03:48.478Z,8.95
2023-01-22T22:06:14.992Z,9.13
2023-01-22T22:08:43.501Z,9.50
2023-01-22T22:11:12.301Z,8.27
2023-01-22T22:13:39.318Z,9.18
2023-01-22T22:16:07.875Z,9.23
2023-01-22T22:18:35.533Z,8.35
2023-01-22T22:21:05.119Z,9.23
2023-01-22T22:23:32.690Z,7.88
2023-01-22T22:25:59.398Z,8.00
2023-01-22T22:28:26.625Z,7.97
2023-01-22T22:30:53.484Z,7.22
2023-01-22T22:33:20.030Z,7.85
2023-01-22T22:35:47.546Z,8.30
2023-01-22T22:38:14.385Z,7.18
2023-01-22T22:40:40.952Z,8.73
2023-01-22T22:43:07.501Z,7.75
2023-01-22T22:45:37.418Z,8.05
2023-01-22T22:48:04.266Z,7.85
2023-01-22T22:50:30.760Z,7.57
2023-01-22T22:52:57.176Z,7.93
2023-01-22T22:55:23.708Z,7.47
2023-01-22T22:57:50.383Z,7.10
2023-01-22T23:00:17.566Z,7.72
2023-01-22T23:02:44.692Z,7.97
2023-01-22T23:05:11.182Z,8.23
2023-01-22T23:07:37.666Z,7.80
2023-01-22T23:10:04.640Z,8.00
2023-01-22T23:12:31.278Z,7.95
2023-01-22T23:14:57.767Z,8.60
2023-01-22T23:17:24.247Z,7.45
2023-01-22T23:19:50.788Z,8.20
2023-01-22T23:22:17.240Z,8.02
2023-01-22T23:24:44.842Z,8.10
2023-01-22T23:27:11.325Z,7.72
2023-01-22T23:29:38.130Z,8.68
2023-01-22T23:32:04.801Z,8.23
2023-01-22T23:34:31.329Z,8.02
2023-01-22T23:36:57.787Z,7.43
2023-01-22T23:39:24.411Z,7.82
2023-01-22T23:41:50.891Z,7.30
2023-01-22T23:44:17.670Z,8.20
2023-01-22T23:46:44.789Z,8.27
2023-01-22T23:49:11.315Z,7.35
2023-01-22T23:51:40.981Z,7.18
2023-01-22T23:54:07.577Z,6.50
2023-01-22T23:56:34.507Z,7.35
2023-01-22T23:59:00.963Z,7.68
